createdAt,value
2023-04-15T09:31:10.590Z,97894.78
2023-04-15T09:33:58.753Z,97916.56
2023-04-15T09:36:25.529Z,97924.13
2023-04-15T09:38:57.404Z,97928.66
2023-04-15T09:41:25.823Z,97939.34
2023-04-15T09:43:52.991Z,97939.50
2023-04-15T09:46:19.613Z,97941.13
2023-04-15T09:48:46.624Z,97950.78
2023-04-15T09:51:13.017Z,97959.91
2023-04-15T09:53:39.465Z,97960.72
2023-04-15T09:56:07.891Z,97963.00
2023-04-15T09:58:35.358Z,97977.00
2023-04-15T10:01:04.703Z,97957.78
2023-04-15T10:03:37.451Z,97961.78
2023-04-15T10:06:05.492Z,97968.44
2023-04-15T10:08:33.726Z,97973.63
2023-04-15T10:11:04.490Z,97964.47
2023-04-15T10:13:37.137Z,97972.53
2023-04-15T10:16:11.233Z,97975.56
2023-04-15T10:18:46.171Z,97984.13
2023-04-15T10:21:18.566Z,97986.88
2023-04-15T10:23:48.321Z,97987.97
2023-04-15T10:26:15.929Z,97986.00
2023-04-15T10:28:42.462Z,98000.84
2023-04-15T10:31:16.469Z,97994.31
2023-04-15T10:33:44.209Z,97999.16
2023-04-15T10:36:11.641Z,98004.72
2023-04-15T10:38:42.479Z,98000.47
2023-04-15T10:41:21.620Z,97995.91
2023-04-15T10:44:09.262Z,97993.31
2023-04-15T10:46:39.933Z,97992.03
2023-04-15T10:49:17.035Z,97999.78
2023-04-15T10:51:52.845Z,98002.34
2023-04-15T10:54:25.376Z,97997.16
2023-04-15T10:57:07.736Z,97998.78
2023-04-15T10:59:58.857Z,98005.09
2023-04-15T11:02:43.980Z,98013.28
2023-04-15T11:05:12.058Z,98009.88
2023-04-15T11:07:48.436Z,98011.44
2023-04-15T11:10:17.619Z,98015.88
2023-04-15T11:12:57.285Z,98008.41
2023-04-15T11:15:32.515Z,98016.63
2023-04-15T11:18:26.010Z,98028.44
2023-04-15T11:20:56.432Z,98028.38
2023-04-15T11:23:35.894Z,98030.19
2023-04-15T11:26:06.735Z,98023.03
2023-04-15T11:28:33.419Z,98026.34
2023-04-15T11:31:06.621Z,98024.06
2023-04-15T11:33:32.976Z,98034.13
2023-04-15T11:35:59.407Z,98038.22
2023-04-15T11:38:25.778Z,98040.75
2023-04-15T11:40:53.331Z,98038.66
2023-04-15T11:43:21.993Z,98046.03
2023-04-15T11:46:02.505Z,98045.47
2023-04-15T11:48:33.266Z,98052.41
2023-04-15T11:51:04.241Z,98055.19
2023-04-15T11:53:44.302Z,98059.16
2023-04-15T11:56:17.064Z,98065.50
2023-04-15T11:58:44.676Z,98065.84
2023-04-15T12:01:12.767Z,98071.56
2023-04-15T12:03:42.441Z,98067.66
2023-04-15T12:06:21.013Z,98074.72
2023-04-15T12:09:16.623Z,98082.31
2023-04-15T12:11:48.357Z,98082.47
2023-04-15T12:14:22.257Z,98082.44
2023-04-15T12:16:51.775Z,98080.66
2023-04-15T12:19:27.516Z,98079.88
2023-04-15T12:22:00.627Z,98092.69
2023-04-15T12:24:27.656Z,98092.00
2023-04-15T12:26:59.642Z,98084.84
2023-04-15T12:29:28.350Z,98089.00
2023-04-15T12:32:03.949Z,98097.00
2023-04-15T12:34:32.750Z,98100.72
2023-04-15T12:37:01.479Z,98105.91
2023-04-15T12:39:31.121Z,98098.44
2023-04-15T12:41:57.536Z,98109.06
2023-04-15T12:44:24.415Z,98106.59
2023-04-15T12:46:52.776Z,98115.16
2023-04-15T12:49:20.904Z,98125.19
2023-04-15T12:51:55.863Z,98119.19
2023-04-15T12:54:22.666Z,98129.63
2023-04-15T12:56:50.488Z,98131.06
2023-04-15T12:59:19.972Z,98137.56
2023-04-15T13:01:47.832Z,98150.00
2023-04-15T13:04:15.416Z,98150.69
2023-04-15T13:06:41.966Z,98153.72
2023-04-15T13:09:08.498Z,98153.50
2023-04-15T13:11:35.733Z,98151.16
2023-04-15T13:14:04.613Z,98156.50
2023-04-15T13:16:32.265Z,98161.56
2023-04-15T13:18:59.411Z,98160.84
2023-04-15T13:21:25.789Z,98169.00
2023-04-15T13:23:52.268Z,98172.69
2023-04-15T13:26:19.692Z,98187.16
2023-04-15T13:28:46.267Z,98185.06
2023-04-15T13:31:12.741Z,98188.38
2023-04-15T13:33:39.189Z,98194.75
2023-04-15T13:36:06.684Z,98194.19
2023-04-15T13:38:33.084Z,98192.66
2023-04-15T13:40:59.453Z,98192.00
2023-04-15T13:43:26.335Z,98194.34
2023-04-15T13:45:52.775Z,98199.47
2023-04-15T13:48:19.293Z,98197.72
2023-04-15T13:50:45.833Z,98198.78
2023-04-15T13:53:13.027Z,98205.63
2023-04-15T13:55:42.685Z,98196.97
2023-04-15T13:58:09.761Z,98204.88
2023-04-15T14:00:36.157Z,98210.06
2023-04-15T14:03:02.707Z,98213.84
2023-04-15T14:05:29.262Z,98228.28
2023-04-15T14:07:55.639Z,98215.50
2023-04-15T14:10:22.015Z,98220.94
2023-04-15T14:12:48.404Z,98224.00
2023-04-15T14:15:15.020Z,98229.09
2023-04-15T14:17:42.515Z,98234.69
2023-04-15T14:20:09.597Z,98235.19
2023-04-15T14:22:36.059Z,98237.69
2023-04-15T14:25:02.702Z,98241.84
2023-04-15T14:27:30.100Z,98251.16
2023-04-15T14:29:57.714Z,98248.44
2023-04-15T14:32:26.302Z,98254.69
2023-04-15T14:34:52.700Z,98251.97
2023-04-15T14:37:19.237Z,98255.06
2023-04-15T14:39:45.646Z,98257.50
2023-04-15T14:42:12.064Z,98269.31
2023-04-15T14:44:38.425Z,98265.25
2023-04-15T14:47:05.833Z,98274.41
2023-04-15T14:49:32.239Z,98273.09
2023-04-15T14:51:58.591Z,98274.56
2023-04-15T14:54:24.967Z,98278.78
2023-04-15T14:56:52.489Z,98296.00
2023-04-15T14:59:18.898Z,98287.56
2023-04-15T15:01:46.622Z,98290.16
2023-04-15T15:04:13.372Z,98288.00
2023-04-15T15:06:42.435Z,98294.91
2023-04-15T15:09:08.795Z,98298.47
2023-04-15T15:11:35.235Z,98313.06
2023-04-15T15:14:01.593Z,98310.81
2023-04-15T15:16:28.342Z,98315.25
2023-04-15T15:18:56.031Z,98316.69
2023-04-15T15:21:22.403Z,98326.66
2023-04-15T15:23:48.780Z,98327.31
2023-04-15T15:26:15.762Z,98335.25
2023-04-15T15:28:42.366Z,98343.41
2023-04-15T15:31:09.053Z,98341.69
2023-04-15T15:33:35.540Z,98343.81
2023-04-15T15:36:03.123Z,98353.94
2023-04-15T15:38:29.504Z,98361.19
2023-04-15T15:40:56.016Z,98367.38
2023-04-15T15:43:22.393Z,98362.78
2023-04-15T15:45:51.656Z,98373.50
2023-04-15T15:48:18.455Z,98368.38
2023-04-15T15:50:45.493Z,98373.75
2023-04-15T15:53:12.399Z,98380.09
2023-04-15T15:55:38.774Z,98378.94
2023-04-15T15:58:05.119Z,98379.34
2023-04-15T16:00:31.517Z,98381.25
2023-04-15T16:05:27.490Z,98378.09
2023-04-15T16:07:53.849Z,98392.03
2023-04-15T16:10:20.302Z,98395.53
2023-04-15T16:12:46.680Z,98398.38
2023-04-15T16:15:13.325Z,98402.34
2023-04-15T16:17:39.730Z,98409.97
2023-04-15T16:20:06.920Z,98420.50
2023-04-15T16:22:34.829Z,98420.56
2023-04-15T16:25:01.757Z,98419.91
2023-04-15T16:27:28.370Z,98430.78
2023-04-15T16:29:54.808Z,98431.09
2023-04-15T16:32:21.367Z,98432.03
2023-04-15T16:34:47.856Z,98435.09
2023-04-15T16:37:14.216Z,98445.16
2023-04-15T16:39:40.814Z,98438.72
2023-04-15T16:42:07.389Z,98440.44
2023-04-15T16:44:33.919Z,98443.09
2023-04-15T16:47:02.215Z,98447.88
2023-04-15T16:49:29.826Z,98440.63
2023-04-15T16:51:56.219Z,98445.81
2023-04-15T16:54:22.622Z,98447.66
2023-04-15T16:56:48.992Z,98445.75
2023-04-15T16:59:15.357Z,98438.97
2023-04-15T17:01:41.923Z,98441.38
2023-04-15T17:04:08.478Z,98442.78
2023-04-15T17:06:34.927Z,98452.13
2023-04-15T17:09:01.292Z,98451.91
2023-04-15T17:11:28.329Z,98452.16
2023-04-15T17:13:54.704Z,98457.19
2023-04-15T17:16:21.264Z,98459.34
2023-04-15T17:18:50.382Z,98453.81
2023-04-15T17:21:17.487Z,98455.44
2023-04-15T17:23:43.890Z,98460.88
2023-04-15T17:26:10.262Z,98460.25
2023-04-15T17:28:36.630Z,98456.31
2023-04-15T17:31:03.838Z,98459.75
2023-04-15T17:34:01.504Z,98468.25
2023-04-15T17:36:17.586Z,98467.00
2023-04-15T17:38:43.958Z,98464.47
2023-04-15T17:41:10.584Z,98463.31
2023-04-15T17:43:36.952Z,98472.13
2023-04-15T17:46:03.384Z,98468.25
2023-04-15T17:48:30.833Z,98484.50
2023-04-15T17:50:57.202Z,98479.38
2023-04-15T17:53:23.558Z,98480.03
2023-04-15T17:55:52.987Z,98477.72
2023-04-15T17:58:20.106Z,98479.75
2023-04-15T18:00:47.115Z,98474.56
2023-04-15T18:03:14.226Z,98475.41
2023-04-15T18:05:42.653Z,98479.03
2023-04-15T18:08:09.583Z,98476.06
2023-04-15T18:10:36.836Z,98481.59
2023-04-15T18:13:03.423Z,98477.72
2023-04-15T18:15:31.145Z,98490.66
2023-04-15T18:18:00.847Z,98493.63
2023-04-15T18:20:27.846Z,98491.38
2023-04-15T18:22:54.296Z,98494.34
2023-04-15T18:25:20.824Z,98501.13
2023-04-15T18:27:47.244Z,98497.72
2023-04-15T18:30:13.646Z,98495.72
2023-04-15T18:32:40.921Z,98503.16
2023-04-15T18:35:07.818Z,98509.06
2023-04-15T18:37:34.213Z,98515.91
2023-04-15T18:40:00.911Z,98516.28
2023-04-15T18:42:27.353Z,98516.41
2023-04-15T18:44:53.973Z,98518.41
2023-04-15T18:47:20.609Z,98526.31
2023-04-15T18:49:46.997Z,98516.75
2023-04-15T18:52:13.491Z,98527.63
2023-04-15T18:54:39.852Z,98528.94
2023-04-15T18:57:06.683Z,98527.25
2023-04-15T18:59:33.668Z,98527.03
2023-04-15T19:02:01.165Z,98526.78
2023-04-15T19:04:29.384Z,98524.03
2023-04-15T19:06:57.197Z,98536.81
2023-04-15T19:09:23.595Z,98540.78
2023-04-15T19:11:49.955Z,98529.69
2023-04-15T19:14:17.723Z,98541.22
2023-04-15T19:16:44.117Z,98542.84
2023-04-15T19:19:10.607Z,98536.56
2023-04-15T19:21:36.982Z,98543.63
2023-04-15T19:24:03.466Z,98538.81
2023-04-15T19:26:30.929Z,98545.63
2023-04-15T19:28:58.906Z,98543.94
2023-04-15T19:31:26.173Z,98551.53
2023-04-15T19:33:52.747Z,98557.00
2023-04-15T19:36:19.170Z,98558.81
2023-04-15T19:38:45.645Z,98553.50
2023-04-15T19:41:13.096Z,98549.69
2023-04-15T19:43:39.482Z,98557.84
2023-04-15T19:46:06.504Z,98551.13
2023-04-15T19:48:32.907Z,98550.66
2023-04-15T19:51:00.544Z,98548.97
2023-04-15T19:53:26.911Z,98557.38
2023-04-15T19:55:53.283Z,98554.91
2023-04-15T19:58:19.650Z,98566.34
2023-04-15T20:00:46.157Z,98567.56
2023-04-15T20:03:12.698Z,98561.31
2023-04-15T20:05:39.195Z,98565.78
2023-04-15T20:08:05.581Z,98568.41
2023-04-15T20:10:32.222Z,98577.59
2023-04-15T20:12:58.875Z,98580.31
2023-04-15T20:15:25.296Z,98574.03
2023-04-15T20:17:52.924Z,98575.72
2023-04-15T20:20:19.472Z,98576.50
2023-04-15T20:22:45.933Z,98584.78
2023-04-15T20:25:12.302Z,98581.38
2023-04-15T20:27:38.796Z,98592.16
2023-04-15T20:30:05.922Z,98596.47
2023-04-15T20:32:35.330Z,98586.47
2023-04-15T20:35:03.238Z,98587.31
2023-04-15T20:37:32.902Z,98587.19
2023-04-15T20:40:00.275Z,98592.78
2023-04-15T20:42:26.787Z,98587.78
2023-04-15T20:44:53.141Z,98596.28
2023-04-15T20:47:19.639Z,98595.25
2023-04-15T20:49:47.426Z,98594.06
2023-04-15T20:52:14.889Z,98603.31
2023-04-15T20:54:41.432Z,98602.31
2023-04-15T20:57:07.878Z,98605.44
2023-04-15T20:59:34.862Z,98608.56
2023-04-15T21:02:01.919Z,98605.03
2023-04-15T21:04:28.518Z,98609.06
2023-04-15T21:06:54.891Z,98612.66
2023-04-15T21:09:21.324Z,98622.16
2023-04-15T21:14:18.252Z,98622.78
2023-04-15T21:16:45.072Z,98617.69
2023-04-15T21:19:11.598Z,98623.13
2023-04-15T21:21:37.980Z,98621.00
2023-04-15T21:24:04.403Z,98622.88
2023-04-15T21:26:30.892Z,98619.81
2023-04-15T21:28:57.293Z,98631.25
2023-04-15T21:31:23.834Z,98633.59
2023-04-15T21:33:50.257Z,98637.06
2023-04-15T21:36:16.687Z,98643.84
2023-04-15T21:38:43.031Z,98640.75
2023-04-15T21:41:10.230Z,98643.09
2023-04-15T21:43:37.103Z,98641.56
2023-04-15T21:46:22.837Z,98641.00
2023-04-15T21:48:50.178Z,98643.13
2023-04-15T21:51:16.541Z,98640.06
2023-04-15T21:53:42.896Z,98644.19
2023-04-15T21:56:09.509Z,98645.38
2023-04-15T21:58:36.237Z,98648.22
2023-04-15T22:01:03.815Z,98650.09
2023-04-15T22:03:33.454Z,98649.38
2023-04-15T22:06:01.776Z,98655.06
2023-04-15T22:08:28.346Z,98657.88
2023-04-15T22:10:54.991Z,98667.38
2023-04-15T22:13:21.682Z,98669.34
2023-04-15T22:15:48.194Z,98673.38
2023-04-15T22:18:14.633Z,98666.28
2023-04-15T22:20:41.086Z,98675.75
2023-04-15T22:23:10.343Z,98667.25
2023-04-15T22:25:37.268Z,98674.31
2023-04-15T22:28:07.788Z,98671.59
2023-04-15T22:30:38.553Z,98673.28
2023-04-15T22:33:06.513Z,98676.44
2023-04-15T22:35:34.301Z,98674.69
2023-04-15T22:38:00.754Z,98679.19
2023-04-15T22:40:28.764Z,98686.75
2023-04-15T22:42:55.232Z,98692.19
2023-04-15T22:45:21.626Z,98704.59
2023-04-15T22:47:48.039Z,98705.28
2023-04-15T22:50:14.415Z,98719.47
2023-04-15T22:52:40.833Z,98711.06
2023-04-15T22:55:07.849Z,98708.94
2023-04-15T22:57:34.189Z,98708.34
2023-04-15T23:00:00.578Z,98708.13
2023-04-15T23:02:27.368Z,98707.31
2023-04-15T23:04:54.119Z,98704.59
2023-04-15T23:07:20.569Z,98712.75
2023-04-15T23:09:46.922Z,98713.94
2023-04-15T23:12:13.648Z,98714.13
2023-04-15T23:14:40.013Z,98713.69
2023-04-15T23:17:06.389Z,98712.25
2023-04-15T23:19:32.920Z,98714.63
2023-04-15T23:21:59.268Z,98718.19
2023-04-15T23:24:25.868Z,98722.44
2023-04-15T23:26:53.072Z,98722.19
2023-04-15T23:29:19.465Z,98717.34
2023-04-15T23:31:45.888Z,98725.75
2023-04-15T23:34:12.293Z,98722.53
2023-04-15T23:36:39.700Z,98722.53
2023-04-15T23:39:06.063Z,98722.09
2023-04-15T23:41:32.441Z,98715.72
2023-04-15T23:43:58.839Z,98716.75
2023-04-15T23:46:26.238Z,98728.22
2023-04-15T23:48:52.608Z,98723.03
2023-04-15T23:51:20.040Z,98728.91
2023-04-15T23:53:46.670Z,98723.03
2023-04-15T23:56:13.019Z,98732.13
2023-04-15T23:58:39.379Z,98729.06
